createdAt,value
2023-03-05T00:02:32.665Z,83824.53
2023-03-05T00:05:35.434Z,83824.50
2023-03-05T00:08:38.446Z,83823.69
2023-03-05T00:11:41.220Z,83822.13
2023-03-05T00:14:43.678Z,83814.25
2023-03-05T00:17:46.436Z,83809.50
2023-03-05T00:20:49.163Z,83807.94
2023-03-05T00:23:54.706Z,83817.44
2023-03-05T00:26:57.124Z,83815.06
2023-03-05T00:29:59.930Z,83812.69
2023-03-05T00:33:02.381Z,83811.09
2023-03-05T00:36:08.301Z,83809.50
2023-03-05T00:39:12.460Z,83804.78
2023-03-05T00:42:15.178Z,83800.03
2023-03-05T00:45:17.692Z,83809.53
2023-03-05T00:48:22.461Z,83806.38
2023-03-05T00:51:25.562Z,83815.84
2023-03-05T00:54:28.331Z,83817.38
2023-03-05T00:57:31.364Z,83817.38
2023-03-05T01:00:34.056Z,83822.13
2023-03-05T01:03:36.926Z,83818.97
2023-03-05T01:06:42.845Z,83822.13
2023-03-05T01:09:45.360Z,83822.13
2023-03-05T01:12:48.163Z,83825.28
2023-03-05T01:15:51.159Z,83822.13
2023-03-05T01:18:54.930Z,83820.56
2023-03-05T01:21:57.702Z,83820.56
2023-03-05T01:25:00.666Z,83819.78
2023-03-05T01:28:03.347Z,83817.44
2023-03-05T01:31:09.205Z,83818.97
2023-03-05T01:34:11.647Z,83821.34
2023-03-05T01:37:14.753Z,83819.00
2023-03-05T01:40:20.623Z,83817.41
2023-03-05T01:43:29.352Z,83828.44
2023-03-05T01:46:36.619Z,83833.16
2023-03-05T01:49:41.347Z,83832.41
2023-03-05T01:52:50.119Z,83837.94
2023-03-05T01:55:54.858Z,83841.06
2023-03-05T01:59:03.677Z,83842.63
2023-03-05T02:02:08.243Z,83841.09
2023-03-05T02:05:16.231Z,83841.09
2023-03-05T02:08:22.082Z,83839.47
2023-03-05T02:11:24.994Z,83838.69
2023-03-05T02:14:28.349Z,83834.72
2023-03-05T02:17:30.778Z,83837.91
2023-03-05T02:20:46.626Z,83834.78
2023-03-05T02:23:48.959Z,83834.72
2023-03-05T02:26:51.704Z,83833.97
2023-03-05T02:29:54.096Z,83833.16
2023-03-05T02:32:57.596Z,83831.59
2023-03-05T02:36:00.419Z,83824.53
2023-03-05T02:39:04.467Z,83807.16
2023-03-05T02:42:07.037Z,83803.19
2023-03-05T02:45:12.639Z,83806.34
2023-03-05T02:48:15.274Z,83798.50
2023-03-05T02:51:18.786Z,83800.06
2023-03-05T02:54:21.613Z,83795.31
2023-03-05T02:57:24.854Z,83785.84
2023-03-05T03:00:27.947Z,83787.44
2023-03-05T03:03:30.888Z,83779.53
2023-03-05T03:06:33.315Z,83784.28
2023-03-05T03:09:36.410Z,83785.84
2023-03-05T03:12:40.145Z,83779.53
2023-03-05T03:15:42.783Z,83788.22
2023-03-05T03:18:47.528Z,83792.97
2023-03-05T03:21:50.777Z,83781.13
2023-03-05T03:24:53.545Z,83784.28
2023-03-05T03:27:56.210Z,83778.00
2023-03-05T03:30:58.595Z,83773.22
2023-03-05T03:34:01.233Z,83774.81
2023-03-05T03:37:03.628Z,83774.81
2023-03-05T03:40:06.964Z,83781.13
2023-03-05T03:43:10.596Z,83781.91
2023-03-05T03:46:13.548Z,83779.53
2023-03-05T03:49:24.235Z,83777.97
2023-03-05T03:52:27.461Z,83781.16
2023-03-05T03:55:29.859Z,83781.16
2023-03-05T03:58:32.768Z,83781.91
2023-03-05T04:01:35.553Z,83782.72
2023-03-05T04:04:38.433Z,83778.75
2023-03-05T04:07:40.839Z,83774.81
2023-03-05T04:10:43.609Z,83773.25
2023-03-05T04:13:49.614Z,83768.50
2023-03-05T04:16:52.366Z,83765.34
2023-03-05T04:19:54.845Z,83772.44
2023-03-05T04:22:57.758Z,83773.22
2023-03-05T04:26:00.907Z,83771.66
2023-03-05T04:29:03.651Z,83766.91
2023-03-05T04:32:06.459Z,83765.34
2023-03-05T04:35:10.150Z,83768.50
2023-03-05T04:38:13.248Z,83765.38
2023-03-05T04:41:15.908Z,83762.19
2023-03-05T04:44:19.174Z,83763.78
2023-03-05T04:47:21.905Z,83765.38
2023-03-05T04:50:24.862Z,83762.97
2023-03-05T04:53:27.549Z,83751.13
2023-03-05T04:56:29.993Z,83760.63
2023-03-05T04:59:32.871Z,83759.03
2023-03-05T05:02:35.240Z,83754.31
2023-03-05T05:05:37.947Z,83755.88
2023-03-05T05:08:40.327Z,83751.16
2023-03-05T05:11:42.994Z,83751.16
2023-03-05T05:14:45.346Z,83748.00
2023-03-05T05:17:48.125Z,83747.22
2023-03-05T05:20:50.778Z,83744.84
2023-03-05T05:23:53.443Z,83746.41
2023-03-05T05:26:56.224Z,83746.41
2023-03-05T05:29:59.033Z,83743.25
2023-03-05T05:33:01.519Z,83744.84
2023-03-05T05:36:06.389Z,83730.63
2023-03-05T05:39:08.814Z,83733.81
2023-03-05T05:42:11.453Z,83730.66
2023-03-05T05:45:13.949Z,83719.59
2023-03-05T05:48:16.863Z,83733.00
2023-03-05T05:51:21.823Z,83733.81
2023-03-05T05:54:25.541Z,83736.97
2023-03-05T05:57:27.950Z,83740.12
2023-03-05T06:00:30.622Z,83732.22
2023-03-05T06:03:33.356Z,83732.22
2023-03-05T06:06:35.980Z,83729.06
2023-03-05T06:09:38.681Z,83725.16
2023-03-05T06:12:41.182Z,83718.00
2023-03-05T06:15:43.775Z,83710.12
2023-03-05T06:18:46.442Z,83718.81
2023-03-05T06:21:49.122Z,83718.00
2023-03-05T06:24:51.517Z,83708.53
2023-03-05T06:27:54.334Z,83706.94
2023-03-05T06:31:08.696Z,83709.34
2023-03-05T06:34:12.737Z,83708.56
2023-03-05T06:37:15.810Z,83701.44
2023-03-05T06:40:18.702Z,83694.38
2023-03-05T06:43:21.021Z,83686.44
2023-03-05T06:46:28.990Z,83684.06
2023-03-05T06:49:31.421Z,83680.13
2023-03-05T06:52:34.147Z,83679.34
2023-03-05T06:55:39.886Z,83684.88
2023-03-05T06:58:44.232Z,83685.66
2023-03-05T07:01:46.564Z,83675.37
2023-03-05T07:04:49.196Z,83681.69
2023-03-05T07:07:51.830Z,83672.22
2023-03-05T07:10:54.741Z,83677.00
2023-03-05T07:13:57.478Z,83680.13
2023-03-05T07:17:00.206Z,83670.66
2023-03-05T07:20:03.296Z,83667.50
2023-03-05T07:23:06.097Z,83664.38
2023-03-05T07:26:08.630Z,83662.78
2023-03-05T07:29:11.386Z,83651.75
2023-03-05T07:32:13.984Z,83646.97
2023-03-05T07:35:16.740Z,83640.69
2023-03-05T07:38:19.255Z,83647.75
2023-03-05T07:41:23.674Z,83642.22
2023-03-05T07:44:26.131Z,83640.66
2023-03-05T07:47:28.832Z,83639.91
2023-03-05T07:50:33.091Z,83623.28
2023-03-05T07:53:35.748Z,83635.13
2023-03-05T07:56:38.146Z,83631.19
2023-03-05T07:59:40.905Z,83628.03
2023-03-05T08:02:43.473Z,83628.06
2023-03-05T08:05:46.337Z,83621.75
2023-03-05T08:08:48.895Z,83598.03
2023-03-05T08:11:51.550Z,83601.19
2023-03-05T08:14:54.168Z,83600.38
2023-03-05T08:17:56.851Z,83620.16
2023-03-05T08:20:59.631Z,83621.72
2023-03-05T08:24:05.245Z,83620.13
2023-03-05T08:27:08.000Z,83620.13
2023-03-05T08:30:15.120Z,83602.75
2023-03-05T08:33:17.735Z,83601.19
2023-03-05T08:36:20.931Z,83600.41
2023-03-05T08:39:23.286Z,83599.63
2023-03-05T08:42:26.106Z,83594.06
2023-03-05T08:45:28.866Z,83590.91
2023-03-05T08:48:32.079Z,83563.25
2023-03-05T08:51:35.774Z,83566.41
2023-03-05T08:54:38.676Z,83560.09
2023-03-05T08:57:41.160Z,83566.41
2023-03-05T09:00:43.923Z,83555.34
2023-03-05T09:03:46.440Z,83536.44
2023-03-05T09:06:49.096Z,83549.03
2023-03-05T09:09:51.501Z,83553.81
2023-03-05T09:12:54.137Z,83537.97
2023-03-05T09:16:02.447Z,83525.34
2023-03-05T09:19:05.207Z,83530.06
2023-03-05T09:22:07.729Z,83503.19
2023-03-05T09:25:11.873Z,83487.41
2023-03-05T09:28:14.363Z,83470.06
2023-03-05T09:31:17.726Z,83458.94
2023-03-05T09:34:20.177Z,83476.34
2023-03-05T09:37:22.828Z,83460.56
2023-03-05T09:40:27.102Z,83481.09
2023-03-05T09:43:47.991Z,83465.25
2023-03-05T09:47:22.767Z,83451.81
2023-03-05T09:50:32.729Z,83460.56
2023-03-05T09:53:46.653Z,83473.22
2023-03-05T09:56:56.720Z,83452.66
2023-03-05T10:00:11.844Z,83435.25
2023-03-05T10:03:27.403Z,83432.13
2023-03-05T10:06:34.308Z,83438.41
2023-03-05T10:09:49.526Z,83465.31
2023-03-05T10:12:57.527Z,83462.16
2023-03-05T10:16:28.072Z,83449.50
2023-03-05T10:19:55.738Z,83440.78
2023-03-05T10:23:10.436Z,83444.00
2023-03-05T10:26:54.505Z,83451.84
2023-03-05T10:30:24.337Z,83446.34
2023-03-05T10:33:45.782Z,83433.69
2023-03-05T10:37:08.200Z,83411.56
2023-03-05T10:40:16.884Z,83415.50
2023-03-05T10:43:49.485Z,83438.44
2023-03-05T10:46:53.888Z,83409.97
2023-03-05T10:49:59.220Z,83389.41
2023-03-05T10:53:22.790Z,83392.56
2023-03-05T10:56:28.152Z,83395.75
2023-03-05T10:59:32.647Z,83391.00
2023-03-05T11:02:54.557Z,83372.81
2023-03-05T11:06:02.495Z,83368.88
2023-03-05T11:09:18.411Z,83386.31
2023-03-05T11:12:21.948Z,83378.37
2023-03-05T11:15:28.536Z,83381.53
2023-03-05T11:18:34.732Z,83360.19
2023-03-05T11:21:37.321Z,83349.91
2023-03-05T11:24:41.460Z,83342.00
2023-03-05T11:27:55.014Z,83348.31
2023-03-05T11:31:23.595Z,83343.59
2023-03-05T11:34:31.851Z,83333.28
2023-03-05T11:37:34.565Z,83361.00
2023-03-05T11:40:37.823Z,83374.47
2023-03-05T11:43:43.925Z,83362.56
2023-03-05T11:47:03.524Z,83362.59
2023-03-05T11:50:31.324Z,83351.53
2023-03-05T11:53:36.843Z,83368.94
2023-03-05T11:56:42.567Z,83355.47
2023-03-05T11:59:45.685Z,83351.56
2023-03-05T12:02:53.265Z,83337.31
2023-03-05T12:06:24.339Z,83309.63
2023-03-05T12:09:46.772Z,83293.78
2023-03-05T12:13:23.525Z,83274.00
2023-03-05T12:16:41.511Z,83291.44
2023-03-05T12:19:58.677Z,83293.84
2023-03-05T12:23:01.129Z,83304.13
2023-03-05T12:26:04.684Z,83308.06
2023-03-05T12:29:29.356Z,83301.75
2023-03-05T12:32:32.053Z,83272.50
2023-03-05T12:35:39.735Z,83263.00
2023-03-05T12:38:42.720Z,83240.84
2023-03-05T12:41:45.158Z,83225.81
2023-03-05T12:45:15.385Z,83221.12
2023-03-05T12:48:17.805Z,83191.78
2023-03-05T12:51:35.741Z,83198.12
2023-03-05T12:54:39.903Z,83214.00
2023-03-05T12:57:45.912Z,83210.81
2023-03-05T13:01:16.551Z,83183.88
2023-03-05T13:04:26.450Z,83161.72
2023-03-05T13:07:29.056Z,83163.31
2023-03-05T13:10:31.813Z,83207.69
2023-03-05T13:13:38.067Z,83213.19
2023-03-05T13:16:41.380Z,83227.41
2023-03-05T13:19:43.917Z,83221.91
2023-03-05T13:22:46.788Z,83245.69
2023-03-05T13:26:18.945Z,83223.50
2023-03-05T13:29:28.331Z,83220.31
2023-03-05T13:32:33.243Z,83221.09
2023-03-05T13:35:36.199Z,83220.31
2023-03-05T13:38:47.561Z,83230.63
2023-03-05T13:42:15.860Z,83228.25
2023-03-05T13:45:32.010Z,83220.34
2023-03-05T13:48:34.839Z,83226.66
2023-03-05T13:51:52.363Z,83240.09
2023-03-05T13:54:55.374Z,83248.81
2023-03-05T13:57:59.005Z,83277.28
2023-03-05T14:01:18.507Z,83278.87
2023-03-05T14:04:27.581Z,83294.72
2023-03-05T14:07:51.049Z,83308.97
2023-03-05T14:10:55.733Z,83299.47
2023-03-05T14:14:08.563Z,83308.94
2023-03-05T14:17:38.079Z,83305.78
2023-03-05T14:20:59.166Z,83312.91
2023-03-05T14:24:13.050Z,83313.69
2023-03-05T14:27:21.182Z,83315.25
2023-03-05T14:30:24.877Z,83316.84
2023-03-05T14:33:31.988Z,83312.16
2023-03-05T14:36:35.327Z,83303.44
2023-03-05T14:39:52.996Z,83307.44
2023-03-05T14:42:56.803Z,83316.91
2023-03-05T14:45:59.331Z,83302.69
2023-03-05T14:49:02.750Z,83288.41
2023-03-05T14:52:06.682Z,83290.00
2023-03-05T14:55:15.502Z,83286.84
2023-03-05T14:58:21.947Z,83293.19
2023-03-05T15:01:25.383Z,83294.78
2023-03-05T15:04:27.862Z,83305.84
2023-03-05T15:07:32.514Z,83301.87
2023-03-05T15:10:34.854Z,83299.53
2023-03-05T15:13:37.624Z,83299.53
2023-03-05T15:16:43.182Z,83301.09
2023-03-05T15:19:47.195Z,83314.53
2023-03-05T15:22:52.983Z,83321.63
2023-03-05T15:25:55.703Z,83343.81
2023-03-05T15:32:06.649Z,83322.44
2023-03-05T15:35:09.554Z,83324.00
2023-03-05T15:38:12.313Z,83309.03
2023-03-05T15:41:14.856Z,83305.84
2023-03-05T15:44:18.085Z,83331.16
2023-03-05T15:47:20.717Z,83340.66
2023-03-05T15:50:23.502Z,83356.41
2023-03-05T15:53:25.963Z,83358.00
2023-03-05T15:56:28.885Z,83361.16
2023-03-05T15:59:31.327Z,83362.72
2023-03-05T16:02:34.160Z,83373.81
2023-03-05T16:05:38.244Z,83372.22
2023-03-05T16:08:43.831Z,83394.38
2023-03-05T16:11:49.305Z,83407.03
2023-03-05T16:14:52.075Z,83418.84
2023-03-05T16:17:59.214Z,83424.38
2023-03-05T16:21:02.279Z,83433.84
2023-03-05T16:24:05.820Z,83437.03
2023-03-05T16:27:08.706Z,83437.03
2023-03-05T16:30:14.046Z,83437.00
2023-03-05T16:33:16.597Z,83432.28
2023-03-05T16:36:21.310Z,83437.00
2023-03-05T16:39:23.651Z,83439.37
2023-03-05T16:42:26.536Z,83454.37
2023-03-05T16:45:28.988Z,83470.19
2023-03-05T16:48:31.684Z,83464.66
2023-03-05T16:51:34.838Z,83470.97
2023-03-05T16:54:41.405Z,83474.91
2023-03-05T16:57:43.909Z,83468.59
2023-03-05T17:00:47.013Z,83474.91
2023-03-05T17:03:50.864Z,83478.88
2023-03-05T17:06:55.619Z,83478.13
2023-03-05T17:09:58.015Z,83471.75
2023-03-05T17:13:01.048Z,83482.81
2023-03-05T17:16:04.964Z,83474.91
2023-03-05T17:19:07.744Z,83485.19
2023-03-05T17:22:12.700Z,83486.75
2023-03-05T17:25:15.333Z,83492.28
2023-03-05T17:28:17.924Z,83500.16
2023-03-05T17:31:20.663Z,83497.00
2023-03-05T17:34:35.697Z,83499.41
2023-03-05T17:37:39.483Z,83506.53
2023-03-05T17:40:41.978Z,83508.09
2023-03-05T17:43:44.970Z,83517.56
2023-03-05T17:46:47.805Z,83517.53
2023-03-05T17:49:51.402Z,83521.50
2023-03-05T17:52:54.077Z,83528.63
2023-03-05T17:55:56.878Z,83517.56
2023-03-05T17:59:00.306Z,83520.72
2023-03-05T18:02:03.156Z,83508.09
2023-03-05T18:05:06.799Z,83511.25
2023-03-05T18:08:09.351Z,83518.38
2023-03-05T18:11:12.281Z,83514.44
2023-03-05T18:14:16.832Z,83519.16
2023-03-05T18:17:19.888Z,83516.00
2023-03-05T18:20:27.654Z,83503.38
2023-03-05T18:23:30.572Z,83495.44
2023-03-05T18:26:33.199Z,83510.44
2023-03-05T18:29:35.952Z,83506.53
2023-03-05T18:32:38.432Z,83508.09
2023-03-05T18:35:41.269Z,83509.69
2023-03-05T18:38:44.029Z,83511.25
2023-03-05T18:41:47.812Z,83512.06
2023-03-05T18:44:50.189Z,83514.41
2023-03-05T18:47:54.342Z,83512.03
2023-03-05T18:50:56.768Z,83505.72
2023-03-05T18:53:59.381Z,83512.81
2023-03-05T18:57:01.841Z,83520.75
2023-03-05T19:00:05.176Z,83516.81
2023-03-05T19:03:08.064Z,83519.12
2023-03-05T19:06:10.807Z,83523.88
2023-03-05T19:10:02.383Z,83522.31
2023-03-05T19:13:40.998Z,83519.16
2023-03-05T19:16:44.269Z,83516.00
2023-03-05T19:19:54.633Z,83527.03
2023-03-05T19:22:57.094Z,83522.31
2023-03-05T19:26:02.206Z,83520.75
2023-03-05T19:29:06.460Z,83527.81
2023-03-05T19:32:13.698Z,83535.72
2023-03-05T19:35:17.173Z,83528.59
2023-03-05T19:38:20.134Z,83536.50
2023-03-05T19:41:23.057Z,83539.66
2023-03-05T19:44:26.577Z,83537.28
2023-03-05T19:47:28.983Z,83544.41
2023-03-05T19:50:34.137Z,83538.88
2023-03-05T19:53:37.477Z,83531.78
2023-03-05T19:56:41.812Z,83534.94
2023-03-05T19:59:46.183Z,83534.94
2023-03-05T20:02:48.846Z,83531.78
2023-03-05T20:05:51.569Z,83523.88
2023-03-05T20:08:55.900Z,83519.94
2023-03-05T20:12:02.642Z,83509.69
2023-03-05T20:15:05.583Z,83513.59
2023-03-05T20:18:10.021Z,83511.25
2023-03-05T20:21:18.754Z,83511.28
2023-03-05T20:24:22.411Z,83516.00
2023-03-05T20:27:24.828Z,83515.19
2023-03-05T20:30:27.593Z,83514.41
2023-03-05T20:33:30.173Z,83508.09
2023-03-05T20:36:34.689Z,83511.25
2023-03-05T20:39:37.080Z,83514.44
2023-03-05T20:42:39.771Z,83515.97
2023-03-05T20:45:42.887Z,83512.84
2023-03-05T20:48:48.224Z,83508.09
2023-03-05T20:51:51.115Z,83504.97
2023-03-05T20:54:53.833Z,83509.69
2023-03-05T20:57:57.683Z,83501.78
2023-03-05T21:01:00.544Z,83514.41
2023-03-05T21:04:03.952Z,83517.56
2023-03-05T21:07:06.622Z,83520.75
2023-03-05T21:10:09.765Z,83512.84
2023-03-05T21:13:12.523Z,83502.59
2023-03-05T21:16:18.606Z,83499.41
2023-03-05T21:19:21.220Z,83506.50
2023-03-05T21:22:23.652Z,83522.31
2023-03-05T21:25:31.290Z,83522.31
2023-03-05T21:28:34.027Z,83510.44
2023-03-05T21:31:37.542Z,83508.09
2023-03-05T21:34:39.908Z,83497.06
2023-03-05T21:37:42.964Z,83503.34
2023-03-05T21:40:50.025Z,83501.78
2023-03-05T21:43:53.688Z,83496.25
2023-03-05T21:46:56.094Z,83502.56
2023-03-05T21:49:59.674Z,83509.66
2023-03-05T21:53:03.036Z,83504.97
2023-03-05T21:56:33.465Z,83514.41
2023-03-05T21:59:36.005Z,83508.09
2023-03-05T22:02:40.417Z,83517.56
2023-03-05T22:05:44.102Z,83515.97
2023-03-05T22:08:47.327Z,83514.41
2023-03-05T22:11:50.065Z,83508.13
2023-03-05T22:14:52.530Z,83506.50
2023-03-05T22:17:55.253Z,83507.28
2023-03-05T22:20:59.027Z,83504.94
2023-03-05T22:24:01.857Z,83519.16
2023-03-05T22:27:04.307Z,83504.12
2023-03-05T22:30:08.074Z,83500.19
2023-03-05T22:33:11.144Z,83493.88
2023-03-05T22:36:14.734Z,83495.50
2023-03-05T22:39:17.256Z,83500.19
2023-03-05T22:42:19.868Z,83487.59
2023-03-05T22:45:22.360Z,83500.19
2023-03-05T22:48:24.992Z,83495.50
2023-03-05T22:51:28.749Z,83493.88
2023-03-05T22:54:31.437Z,83491.53
2023-03-05T22:57:34.159Z,83490.75
2023-03-05T23:00:37.954Z,83486.03
2023-03-05T23:04:02.582Z,83479.72
2023-03-05T23:07:28.828Z,83486.00
2023-03-05T23:10:32.716Z,83481.25
2023-03-05T23:13:35.082Z,83476.53
2023-03-05T23:16:37.793Z,83477.31
2023-03-05T23:19:40.429Z,83473.34
2023-03-05T23:22:45.082Z,83479.69
2023-03-05T23:25:50.648Z,83476.56
2023-03-05T23:28:53.268Z,83467.03
2023-03-05T23:31:56.026Z,83474.94
2023-03-05T23:34:58.753Z,83478.09
2023-03-05T23:38:03.137Z,83476.50
2023-03-05T23:41:09.547Z,83476.53
2023-03-05T23:44:11.994Z,83465.47
2023-03-05T23:47:14.614Z,83469.41
2023-03-05T23:50:29.305Z,83473.34
2023-03-05T23:53:32.891Z,83474.16
2023-03-05T23:56:35.290Z,83476.50
2023-03-05T23:59:38.085Z,83477.31
